<?xml version="1.0" encoding="UTF-8" standalone="no" ?>
<gpx xmlns="http://www.topografix.com/GPX/1/1" xmlns:xsi="http://www.w3.org/2001/XMLSchema-instance" xsi:schemaLocation="http://www.topografix.com/GPX/1/1 http://www.topografix.com/GPX/1/1/gpx.xsd" version="1.1" creator="VisuGPX - https://www.visugpx.com">
  <metadata>
    <name>Rando LN</name>
  </metadata>
  <trk>
    <name><![CDATA[St-Chely-d'Aubrac]]></name>
    <extensions>
      <line xmlns="http://www.topografix.com/GPX/gpx_style/0/2">
        <color>0000FF</color>
        <width>4</width>
      </line>
    </extensions>
    <trkseg>
      <trkpt lat="44.51783" lon="2.81929">
        <ele>382.881</ele>
        <time>2015-08-05T16:47:37Z</time>
      </trkpt>
      <trkpt lat="44.51783" lon="2.81929">
        <ele>382.881</ele>
        <time>2015-08-05T16:47:37Z</time>
      </trkpt>
      <trkpt lat="44.51783" lon="2.81929">
        <ele>382.881</ele>
        <time>2015-08-05T16:47:37Z</time>
      </trkpt>
      <trkpt lat="44.51783" lon="2.81929">
        <ele>382.881</ele>
        <time>2015-08-05T16:47:37Z</time>
      </trkpt>
      <trkpt lat="44.51774" lon="2.82008">
        <ele>386.119</ele>
        <time>2015-08-05T16:47:57Z</time>
      </trkpt>
      <trkpt lat="44.51793" lon="2.82027">
        <ele>390.208</ele>
        <time>2015-08-05T16:48:17Z</time>
      </trkpt>
      <trkpt lat="44.51866" lon="2.82056">
        <ele>400.245</ele>
        <time>2015-08-05T16:48:37Z</time>
      </trkpt>
      <trkpt lat="44.51902" lon="2.82095">
        <ele>404.32</ele>
        <time>2015-08-05T16:48:57Z</time>
      </trkpt>
      <trkpt lat="44.51968" lon="2.8223">
        <ele>410.83</ele>
        <time>2015-08-05T16:49:17Z</time>
      </trkpt>
      <trkpt lat="44.52033" lon="2.82283">
        <ele>415.492</ele>
        <time>2015-08-05T16:49:37Z</time>
      </trkpt>
      <trkpt lat="44.52133" lon="2.82414">
        <ele>421.484</ele>
        <time>2015-08-05T16:49:57Z</time>
      </trkpt>
      <trkpt lat="44.52102" lon="2.82544">
        <ele>422.335</ele>
        <time>2020-11-26T06:14:20Z</time>
      </trkpt>
      <trkpt lat="44.52246" lon="2.82571">
        <ele>431.851</ele>
        <time>2015-08-05T16:50:57Z</time>
      </trkpt>
      <trkpt lat="44.52277" lon="2.82595">
        <ele>437.813</ele>
        <time>2015-08-05T16:51:17Z</time>
      </trkpt>
      <trkpt lat="44.52312" lon="2.82604">
        <ele>437.265</ele>
        <time>2015-08-05T16:51:37Z</time>
      </trkpt>
      <trkpt lat="44.52344" lon="2.82643">
        <ele>443.968</ele>
        <time>2015-08-05T16:51:57Z</time>
      </trkpt>
      <trkpt lat="44.52377" lon="2.82678">
        <ele>450.514</ele>
        <time>2015-08-05T16:52:17Z</time>
      </trkpt>
      <trkpt lat="44.52396" lon="2.82711">
        <ele>455.808</ele>
        <time>2015-08-05T16:52:37Z</time>
      </trkpt>
      <trkpt lat="44.52408" lon="2.8276">
        <ele>461.352</ele>
        <time>2015-08-05T16:52:57Z</time>
      </trkpt>
      <trkpt lat="44.52404" lon="2.82806">
        <ele>466.267</ele>
        <time>2015-08-05T16:53:17Z</time>
      </trkpt>
      <trkpt lat="44.52395" lon="2.82835">
        <ele>465.917</ele>
        <time>2015-08-05T16:53:37Z</time>
      </trkpt>
      <trkpt lat="44.52424" lon="2.82856">
        <ele>471.569</ele>
        <time>2015-08-05T16:53:57Z</time>
      </trkpt>
      <trkpt lat="44.52425" lon="2.82891">
        <ele>473.921</ele>
        <time>2015-08-05T16:54:17Z</time>
      </trkpt>
      <trkpt lat="44.52449" lon="2.83014">
        <ele>485.712</ele>
        <time>2015-08-05T16:54:37Z</time>
      </trkpt>
      <trkpt lat="44.52469" lon="2.83072">
        <ele>491.878</ele>
        <time>2015-08-05T16:54:57Z</time>
      </trkpt>
      <trkpt lat="44.52505" lon="2.83086">
        <ele>499.88</ele>
        <time>2015-08-05T16:55:17Z</time>
      </trkpt>
      <trkpt lat="44.52527" lon="2.83149">
        <ele>504.834</ele>
        <time>2015-08-05T16:55:37Z</time>
      </trkpt>
      <trkpt lat="44.52532" lon="2.83177">
        <ele>505.855</ele>
        <time>2015-08-05T16:55:57Z</time>
      </trkpt>
      <trkpt lat="44.52547" lon="2.83198">
        <ele>507.51</ele>
        <time>2015-08-05T16:56:17Z</time>
      </trkpt>
      <trkpt lat="44.52585" lon="2.83353">
        <ele>515.608</ele>
        <time>2015-08-05T16:56:37Z</time>
      </trkpt>
      <trkpt lat="44.52648" lon="2.83338">
        <ele>517.749</ele>
        <time>2015-08-05T16:56:57Z</time>
      </trkpt>
      <trkpt lat="44.5271" lon="2.83267">
        <ele>517.084</ele>
        <time>2015-08-05T16:57:17Z</time>
      </trkpt>
      <trkpt lat="44.52725" lon="2.83211">
        <ele>519.054</ele>
        <time>2015-08-05T16:57:37Z</time>
      </trkpt>
      <trkpt lat="44.52807" lon="2.83144">
        <ele>515.276</ele>
        <time>2015-08-05T16:57:57Z</time>
      </trkpt>
      <trkpt lat="44.52829" lon="2.83145">
        <ele>515.948</ele>
        <time>2015-08-05T16:58:17Z</time>
      </trkpt>
      <trkpt lat="44.52864" lon="2.83184">
        <ele>517.259</ele>
        <time>2015-08-05T16:58:37Z</time>
      </trkpt>
      <trkpt lat="44.52848" lon="2.83232">
        <ele>518.715</ele>
        <time>2015-08-05T16:58:57Z</time>
      </trkpt>
      <trkpt lat="44.52874" lon="2.83303">
        <ele>515.327</ele>
        <time>2015-08-05T16:59:17Z</time>
      </trkpt>
      <trkpt lat="44.52887" lon="2.83349">
        <ele>508.626</ele>
        <time>2015-08-05T16:59:37Z</time>
      </trkpt>
      <trkpt lat="44.52919" lon="2.83382">
        <ele>508.647</ele>
        <time>2015-08-05T16:59:57Z</time>
      </trkpt>
      <trkpt lat="44.52939" lon="2.83418">
        <ele>504.311</ele>
        <time>2015-08-05T17:00:17Z</time>
      </trkpt>
      <trkpt lat="44.52949" lon="2.83471">
        <ele>498.708</ele>
        <time>2015-08-05T17:00:37Z</time>
      </trkpt>
      <trkpt lat="44.52951" lon="2.83519">
        <ele>500.858</ele>
        <time>2015-08-05T17:00:57Z</time>
      </trkpt>
      <trkpt lat="44.52967" lon="2.83556">
        <ele>499.883</ele>
        <time>2015-08-05T17:01:17Z</time>
      </trkpt>
      <trkpt lat="44.52975" lon="2.83666">
        <ele>492.623</ele>
        <time>2015-08-05T17:01:37Z</time>
      </trkpt>
      <trkpt lat="44.52969" lon="2.83686">
        <ele>490.245</ele>
        <time>2015-08-05T17:01:57Z</time>
      </trkpt>
      <trkpt lat="44.53001" lon="2.83748">
        <ele>491.127</ele>
        <time>2015-08-05T17:02:17Z</time>
      </trkpt>
      <trkpt lat="44.52982" lon="2.83755">
        <ele>490.548</ele>
        <time>2015-08-05T17:02:37Z</time>
      </trkpt>
      <trkpt lat="44.52946" lon="2.83745">
        <ele>487.914</ele>
        <time>2015-08-05T17:02:57Z</time>
      </trkpt>
      <trkpt lat="44.5293" lon="2.83752">
        <ele>488.276</ele>
        <time>2015-08-05T17:03:17Z</time>
      </trkpt>
      <trkpt lat="44.52923" lon="2.83767">
        <ele>489.934</ele>
        <time>2015-08-05T17:03:37Z</time>
      </trkpt>
      <trkpt lat="44.52922" lon="2.83787">
        <ele>492.555</ele>
        <time>2015-08-05T17:03:57Z</time>
      </trkpt>
      <trkpt lat="44.52943" lon="2.83829">
        <ele>499.21</ele>
        <time>2015-08-05T17:04:17Z</time>
      </trkpt>
      <trkpt lat="44.52946" lon="2.83902">
        <ele>504.008</ele>
        <time>2015-08-05T17:04:37Z</time>
      </trkpt>
      <trkpt lat="44.52959" lon="2.83927">
        <ele>504.169</ele>
        <time>2015-08-05T17:04:57Z</time>
      </trkpt>
      <trkpt lat="44.53013" lon="2.83947">
        <ele>509.444</ele>
        <time>2015-08-05T17:05:17Z</time>
      </trkpt>
      <trkpt lat="44.5306" lon="2.83972">
        <ele>513.174</ele>
        <time>2015-08-05T17:05:37Z</time>
      </trkpt>
      <trkpt lat="44.53098" lon="2.84046">
        <ele>518.776</ele>
        <time>2015-08-05T17:05:57Z</time>
      </trkpt>
      <trkpt lat="44.53111" lon="2.8408">
        <ele>521.668</ele>
        <time>2015-08-05T17:06:17Z</time>
      </trkpt>
      <trkpt lat="44.53114" lon="2.8417">
        <ele>517.989</ele>
        <time>2015-08-05T17:06:37Z</time>
      </trkpt>
      <trkpt lat="44.53132" lon="2.84203">
        <ele>516.875</ele>
        <time>2015-08-05T17:06:57Z</time>
      </trkpt>
      <trkpt lat="44.53128" lon="2.84231">
        <ele>512.457</ele>
        <time>2015-08-05T17:07:17Z</time>
      </trkpt>
      <trkpt lat="44.53101" lon="2.84267">
        <ele>507.853</ele>
        <time>2015-08-05T17:07:37Z</time>
      </trkpt>
      <trkpt lat="44.53095" lon="2.84316">
        <ele>501.604</ele>
        <time>2015-08-05T17:07:57Z</time>
      </trkpt>
      <trkpt lat="44.53059" lon="2.84375">
        <ele>495.014</ele>
        <time>2015-08-05T17:08:17Z</time>
      </trkpt>
      <trkpt lat="44.53013" lon="2.84444">
        <ele>480.808</ele>
        <time>2015-08-05T17:08:37Z</time>
      </trkpt>
      <trkpt lat="44.5298" lon="2.84442">
        <ele>482.441</ele>
        <time>2015-08-05T17:08:57Z</time>
      </trkpt>
      <trkpt lat="44.52934" lon="2.84497">
        <ele>466.926</ele>
        <time>2015-08-05T17:09:17Z</time>
      </trkpt>
      <trkpt lat="44.52904" lon="2.84577">
        <ele>456.516</ele>
        <time>2015-08-05T17:09:37Z</time>
      </trkpt>
      <trkpt lat="44.52875" lon="2.8462">
        <ele>452.298</ele>
        <time>2015-08-05T17:09:57Z</time>
      </trkpt>
      <trkpt lat="44.52864" lon="2.84617">
        <ele>450.45</ele>
        <time>2015-08-05T17:10:17Z</time>
      </trkpt>
      <trkpt lat="44.52861" lon="2.84597">
        <ele>450.471</ele>
        <time>2015-08-05T17:10:37Z</time>
      </trkpt>
      <trkpt lat="44.5285" lon="2.84593">
        <ele>449.057</ele>
        <time>2015-08-05T17:10:57Z</time>
      </trkpt>
      <trkpt lat="44.5283" lon="2.84652">
        <ele>443.359</ele>
        <time>2015-08-05T17:11:17Z</time>
      </trkpt>
      <trkpt lat="44.52831" lon="2.8468">
        <ele>441.137</ele>
        <time>2015-08-05T17:11:37Z</time>
      </trkpt>
      <trkpt lat="44.52868" lon="2.84711">
        <ele>438.049</ele>
        <time>2015-08-05T17:11:57Z</time>
      </trkpt>
      <trkpt lat="44.52909" lon="2.84637">
        <ele>446.813</ele>
        <time>2015-08-05T17:12:17Z</time>
      </trkpt>
      <trkpt lat="44.52956" lon="2.84579">
        <ele>447.008</ele>
        <time>2015-08-05T17:12:37Z</time>
      </trkpt>
      <trkpt lat="44.52995" lon="2.84551">
        <ele>453.319</ele>
        <time>2015-08-05T17:12:57Z</time>
      </trkpt>
      <trkpt lat="44.53002" lon="2.84564">
        <ele>452.314</ele>
        <time>2015-08-05T17:13:17Z</time>
      </trkpt>
      <trkpt lat="44.52998" lon="2.84639">
        <ele>431.494</ele>
        <time>2015-08-05T17:13:37Z</time>
      </trkpt>
      <trkpt lat="44.53037" lon="2.84677">
        <ele>431.766</ele>
        <time>2015-08-05T17:13:57Z</time>
      </trkpt>
      <trkpt lat="44.53093" lon="2.84759">
        <ele>431.388</ele>
        <time>2015-08-05T17:14:17Z</time>
      </trkpt>
      <trkpt lat="44.53132" lon="2.84827">
        <ele>422.479</ele>
        <time>2015-08-05T17:14:37Z</time>
      </trkpt>
      <trkpt lat="44.53175" lon="2.84836">
        <ele>427.245</ele>
        <time>2015-08-05T17:14:57Z</time>
      </trkpt>
      <trkpt lat="44.53173" lon="2.84914">
        <ele>429.347</ele>
        <time>2015-08-05T17:15:17Z</time>
      </trkpt>
      <trkpt lat="44.53149" lon="2.84968">
        <ele>429.588</ele>
        <time>2015-08-05T17:15:37Z</time>
      </trkpt>
      <trkpt lat="44.53148" lon="2.85028">
        <ele>438.024</ele>
        <time>2015-08-05T17:15:57Z</time>
      </trkpt>
      <trkpt lat="44.53173" lon="2.85091">
        <ele>447.926</ele>
        <time>2015-08-05T17:16:17Z</time>
      </trkpt>
      <trkpt lat="44.53219" lon="2.85139">
        <ele>452.508</ele>
        <time>2015-08-05T17:16:37Z</time>
      </trkpt>
      <trkpt lat="44.53246" lon="2.8518">
        <ele>455.014</ele>
        <time>2015-08-05T17:16:57Z</time>
      </trkpt>
      <trkpt lat="44.53268" lon="2.85227">
        <ele>453.139</ele>
        <time>2015-08-05T17:17:17Z</time>
      </trkpt>
      <trkpt lat="44.53277" lon="2.85332">
        <ele>465.759</ele>
        <time>2015-08-05T17:17:37Z</time>
      </trkpt>
      <trkpt lat="44.53295" lon="2.85411">
        <ele>471.851</ele>
        <time>2015-08-05T17:17:57Z</time>
      </trkpt>
      <trkpt lat="44.53327" lon="2.85424">
        <ele>468.863</ele>
        <time>2015-08-05T17:18:17Z</time>
      </trkpt>
      <trkpt lat="44.53373" lon="2.85382">
        <ele>463.194</ele>
        <time>2015-08-05T17:18:37Z</time>
      </trkpt>
      <trkpt lat="44.53372" lon="2.85349">
        <ele>463.03</ele>
        <time>2015-08-05T17:18:57Z</time>
      </trkpt>
      <trkpt lat="44.53358" lon="2.8533">
        <ele>460.642</ele>
        <time>2015-08-05T17:19:17Z</time>
      </trkpt>
      <trkpt lat="44.53373" lon="2.85281">
        <ele>471.256</ele>
        <time>2015-08-05T17:19:37Z</time>
      </trkpt>
      <trkpt lat="44.53354" lon="2.8523">
        <ele>472.659</ele>
        <time>2015-08-05T17:19:57Z</time>
      </trkpt>
      <trkpt lat="44.53346" lon="2.85173">
        <ele>480.814</ele>
        <time>2015-08-05T17:20:17Z</time>
      </trkpt>
      <trkpt lat="44.5338" lon="2.85175">
        <ele>492.908</ele>
        <time>2015-08-05T17:20:37Z</time>
      </trkpt>
      <trkpt lat="44.53376" lon="2.85157">
        <ele>496.091</ele>
        <time>2015-08-05T17:20:57Z</time>
      </trkpt>
      <trkpt lat="44.53338" lon="2.85086">
        <ele>501.286</ele>
        <time>2015-08-05T17:21:17Z</time>
      </trkpt>
      <trkpt lat="44.53324" lon="2.85022">
        <ele>503.946</ele>
        <time>2015-08-05T17:21:37Z</time>
      </trkpt>
      <trkpt lat="44.53333" lon="2.84963">
        <ele>507.018</ele>
        <time>2015-08-05T17:21:57Z</time>
      </trkpt>
      <trkpt lat="44.5337" lon="2.84919">
        <ele>518.62</ele>
        <time>2015-08-05T17:22:17Z</time>
      </trkpt>
      <trkpt lat="44.53373" lon="2.84927">
        <ele>521.041</ele>
        <time>2015-08-05T17:22:37Z</time>
      </trkpt>
      <trkpt lat="44.53372" lon="2.84961">
        <ele>524.147</ele>
        <time>2015-08-05T17:22:57Z</time>
      </trkpt>
      <trkpt lat="44.53379" lon="2.8497">
        <ele>528.049</ele>
        <time>2015-08-05T17:23:17Z</time>
      </trkpt>
      <trkpt lat="44.53409" lon="2.84932">
        <ele>535.034</ele>
        <time>2015-08-05T17:23:37Z</time>
      </trkpt>
      <trkpt lat="44.53431" lon="2.8492">
        <ele>540.255</ele>
        <time>2015-08-05T17:23:57Z</time>
      </trkpt>
      <trkpt lat="44.53444" lon="2.84925">
        <ele>543.41</ele>
        <time>2015-08-05T17:24:17Z</time>
      </trkpt>
      <trkpt lat="44.53445" lon="2.84962">
        <ele>545.008</ele>
        <time>2015-08-05T17:24:37Z</time>
      </trkpt>
      <trkpt lat="44.53468" lon="2.84983">
        <ele>547.079</ele>
        <time>2015-08-05T17:24:57Z</time>
      </trkpt>
      <trkpt lat="44.53496" lon="2.84994">
        <ele>552.454</ele>
        <time>2015-08-05T17:25:17Z</time>
      </trkpt>
      <trkpt lat="44.53549" lon="2.85">
        <ele>560.044</ele>
        <time>2015-08-05T17:25:37Z</time>
      </trkpt>
      <trkpt lat="44.53567" lon="2.85017">
        <ele>565.456</ele>
        <time>2015-08-05T17:25:57Z</time>
      </trkpt>
      <trkpt lat="44.53563" lon="2.85095">
        <ele>574.028</ele>
        <time>2015-08-05T17:26:17Z</time>
      </trkpt>
      <trkpt lat="44.53578" lon="2.85133">
        <ele>582.619</ele>
        <time>2015-08-05T17:26:37Z</time>
      </trkpt>
      <trkpt lat="44.53606" lon="2.85169">
        <ele>588.295</ele>
        <time>2015-08-05T17:26:57Z</time>
      </trkpt>
      <trkpt lat="44.53609" lon="2.85147">
        <ele>589.347</ele>
        <time>2015-08-05T17:27:17Z</time>
      </trkpt>
      <trkpt lat="44.53627" lon="2.85125">
        <ele>589.021</ele>
        <time>2015-08-05T17:27:37Z</time>
      </trkpt>
      <trkpt lat="44.53647" lon="2.85122">
        <ele>589.741</ele>
        <time>2015-08-05T17:27:57Z</time>
      </trkpt>
      <trkpt lat="44.53701" lon="2.85164">
        <ele>600.305</ele>
        <time>2015-08-05T17:28:17Z</time>
      </trkpt>
      <trkpt lat="44.53732" lon="2.85205">
        <ele>606.508</ele>
        <time>2015-08-05T17:28:37Z</time>
      </trkpt>
      <trkpt lat="44.53783" lon="2.85249">
        <ele>613.798</ele>
        <time>2015-08-05T17:28:57Z</time>
      </trkpt>
      <trkpt lat="44.53833" lon="2.85296">
        <ele>622.923</ele>
        <time>2015-08-05T17:29:17Z</time>
      </trkpt>
      <trkpt lat="44.53941" lon="2.85324">
        <ele>633.113</ele>
        <time>2015-08-05T17:29:37Z</time>
      </trkpt>
      <trkpt lat="44.54013" lon="2.85382">
        <ele>650.075</ele>
        <time>2015-08-05T17:29:57Z</time>
      </trkpt>
      <trkpt lat="44.54028" lon="2.85421">
        <ele>653.867</ele>
        <time>2015-08-05T17:30:17Z</time>
      </trkpt>
      <trkpt lat="44.54078" lon="2.85475">
        <ele>662.958</ele>
        <time>2015-08-05T17:30:37Z</time>
      </trkpt>
      <trkpt lat="44.54154" lon="2.85533">
        <ele>675.054</ele>
        <time>2015-08-05T17:30:57Z</time>
      </trkpt>
      <trkpt lat="44.54179" lon="2.85543">
        <ele>677.456</ele>
        <time>2015-08-05T17:31:17Z</time>
      </trkpt>
      <trkpt lat="44.54188" lon="2.8556">
        <ele>677.343</ele>
        <time>2015-08-05T17:31:37Z</time>
      </trkpt>
      <trkpt lat="44.54196" lon="2.85607">
        <ele>674.564</ele>
        <time>2015-08-05T17:31:57Z</time>
      </trkpt>
      <trkpt lat="44.54203" lon="2.85634">
        <ele>674.51</ele>
        <time>2015-08-05T17:32:17Z</time>
      </trkpt>
      <trkpt lat="44.54244" lon="2.85689">
        <ele>678.808</ele>
        <time>2015-08-05T17:32:37Z</time>
      </trkpt>
      <trkpt lat="44.54311" lon="2.85806">
        <ele>685.38</ele>
        <time>2015-08-05T17:32:57Z</time>
      </trkpt>
      <trkpt lat="44.54356" lon="2.85876">
        <ele>691.145</ele>
        <time>2015-08-05T17:33:17Z</time>
      </trkpt>
      <trkpt lat="44.5441" lon="2.85924">
        <ele>701.645</ele>
        <time>2015-08-05T17:33:37Z</time>
      </trkpt>
      <trkpt lat="44.54487" lon="2.85944">
        <ele>709.117</ele>
        <time>2015-08-05T17:33:57Z</time>
      </trkpt>
      <trkpt lat="44.54546" lon="2.8594">
        <ele>710.839</ele>
        <time>2015-08-05T17:34:17Z</time>
      </trkpt>
      <trkpt lat="44.54588" lon="2.85953">
        <ele>712.04</ele>
        <time>2015-08-05T17:34:37Z</time>
      </trkpt>
      <trkpt lat="44.54669" lon="2.85974">
        <ele>711.986</ele>
        <time>2015-08-05T17:34:57Z</time>
      </trkpt>
      <trkpt lat="44.54695" lon="2.86035">
        <ele>710.888</ele>
        <time>2015-08-05T17:35:17Z</time>
      </trkpt>
      <trkpt lat="44.54716" lon="2.86068">
        <ele>711.319</ele>
        <time>2015-08-05T17:35:37Z</time>
      </trkpt>
      <trkpt lat="44.54748" lon="2.86099">
        <ele>717.309</ele>
        <time>2015-08-05T17:35:57Z</time>
      </trkpt>
      <trkpt lat="44.54768" lon="2.86152">
        <ele>724.419</ele>
        <time>2015-08-05T17:36:17Z</time>
      </trkpt>
      <trkpt lat="44.54801" lon="2.86211">
        <ele>730.908</ele>
        <time>2015-08-05T17:36:37Z</time>
      </trkpt>
      <trkpt lat="44.54864" lon="2.86288">
        <ele>742.877</ele>
        <time>2015-08-05T17:36:57Z</time>
      </trkpt>
      <trkpt lat="44.54917" lon="2.86317">
        <ele>751.432</ele>
        <time>2015-08-05T17:37:17Z</time>
      </trkpt>
      <trkpt lat="44.54985" lon="2.86339">
        <ele>757.882</ele>
        <time>2015-08-05T17:37:37Z</time>
      </trkpt>
      <trkpt lat="44.5502" lon="2.86373">
        <ele>761.364</ele>
        <time>2015-08-05T17:37:57Z</time>
      </trkpt>
      <trkpt lat="44.55054" lon="2.86414">
        <ele>769.586</ele>
        <time>2015-08-05T17:38:17Z</time>
      </trkpt>
      <trkpt lat="44.55098" lon="2.86448">
        <ele>771.087</ele>
        <time>2015-08-05T17:38:37Z</time>
      </trkpt>
      <trkpt lat="44.55231" lon="2.86477">
        <ele>773.213</ele>
        <time>2015-08-05T17:38:57Z</time>
      </trkpt>
      <trkpt lat="44.55256" lon="2.86515">
        <ele>772.635</ele>
        <time>2015-08-05T17:39:17Z</time>
      </trkpt>
      <trkpt lat="44.55288" lon="2.86536">
        <ele>775.375</ele>
        <time>2015-08-05T17:39:37Z</time>
      </trkpt>
      <trkpt lat="44.55352" lon="2.8655">
        <ele>784.928</ele>
        <time>2015-08-05T17:39:57Z</time>
      </trkpt>
      <trkpt lat="44.55438" lon="2.86558">
        <ele>797.82</ele>
        <time>2015-08-05T17:40:17Z</time>
      </trkpt>
      <trkpt lat="44.55445" lon="2.86528">
        <ele>797.008</ele>
        <time>2015-08-05T17:40:37Z</time>
      </trkpt>
      <trkpt lat="44.55453" lon="2.86519">
        <ele>796.513</ele>
        <time>2015-08-05T17:40:57Z</time>
      </trkpt>
      <trkpt lat="44.55461" lon="2.86553">
        <ele>797.448</ele>
        <time>2015-08-05T17:41:17Z</time>
      </trkpt>
      <trkpt lat="44.55513" lon="2.86591">
        <ele>802.898</ele>
        <time>2015-08-05T17:41:37Z</time>
      </trkpt>
      <trkpt lat="44.55574" lon="2.86664">
        <ele>809.51</ele>
        <time>2015-08-05T17:41:57Z</time>
      </trkpt>
      <trkpt lat="44.55623" lon="2.867">
        <ele>815.422</ele>
        <time>2015-08-05T17:42:17Z</time>
      </trkpt>
      <trkpt lat="44.55671" lon="2.86744">
        <ele>818.943</ele>
        <time>2015-08-05T17:42:37Z</time>
      </trkpt>
      <trkpt lat="44.55682" lon="2.86771">
        <ele>819.649</ele>
        <time>2015-08-05T17:42:57Z</time>
      </trkpt>
      <trkpt lat="44.55737" lon="2.86845">
        <ele>825.931</ele>
        <time>2015-08-05T17:43:17Z</time>
      </trkpt>
      <trkpt lat="44.55846" lon="2.8706">
        <ele>826.479</ele>
        <time>2015-08-05T17:43:37Z</time>
      </trkpt>
      <trkpt lat="44.55861" lon="2.87113">
        <ele>824.905</ele>
        <time>2015-08-05T17:43:57Z</time>
      </trkpt>
      <trkpt lat="44.55869" lon="2.87167">
        <ele>825.325</ele>
        <time>2015-08-05T17:44:17Z</time>
      </trkpt>
      <trkpt lat="44.55872" lon="2.87236">
        <ele>826.208</ele>
        <time>2015-08-05T17:44:37Z</time>
      </trkpt>
      <trkpt lat="44.55864" lon="2.87314">
        <ele>824.753</ele>
        <time>2015-08-05T17:44:57Z</time>
      </trkpt>
      <trkpt lat="44.55868" lon="2.87365">
        <ele>826.618</ele>
        <time>2015-08-05T17:45:17Z</time>
      </trkpt>
      <trkpt lat="44.559" lon="2.87345">
        <ele>828.928</ele>
        <time>2015-08-05T17:45:37Z</time>
      </trkpt>
      <trkpt lat="44.55953" lon="2.87327">
        <ele>833.19</ele>
        <time>2015-08-05T17:45:57Z</time>
      </trkpt>
      <trkpt lat="44.5601" lon="2.8742">
        <ele>836.442</ele>
        <time>2015-08-05T17:46:17Z</time>
      </trkpt>
      <trkpt lat="44.56063" lon="2.87534">
        <ele>842.913</ele>
        <time>2015-08-05T17:46:37Z</time>
      </trkpt>
      <trkpt lat="44.5608" lon="2.87609">
        <ele>844.639</ele>
        <time>2015-08-05T17:46:57Z</time>
      </trkpt>
      <trkpt lat="44.56082" lon="2.87706">
        <ele>847.571</ele>
        <time>2015-08-05T17:47:17Z</time>
      </trkpt>
      <trkpt lat="44.56077" lon="2.87858">
        <ele>848.594</ele>
        <time>2015-08-05T17:47:37Z</time>
      </trkpt>
      <trkpt lat="44.56079" lon="2.87918">
        <ele>849.957</ele>
        <time>2015-08-05T17:47:57Z</time>
      </trkpt>
      <trkpt lat="44.56069" lon="2.8798">
        <ele>851.822</ele>
        <time>2015-08-05T17:48:17Z</time>
      </trkpt>
      <trkpt lat="44.55989" lon="2.88388">
        <ele>864.808</ele>
        <time>2015-08-05T17:48:37Z</time>
      </trkpt>
      <trkpt lat="44.55948" lon="2.88496">
        <ele>863.625</ele>
        <time>2015-08-05T17:48:57Z</time>
      </trkpt>
      <trkpt lat="44.55938" lon="2.88548">
        <ele>864.27</ele>
        <time>2015-08-05T17:49:17Z</time>
      </trkpt>
      <trkpt lat="44.55948" lon="2.88599">
        <ele>860.66</ele>
        <time>2015-08-05T17:49:37Z</time>
      </trkpt>
      <trkpt lat="44.55959" lon="2.88635">
        <ele>859.152</ele>
        <time>2015-08-05T17:49:57Z</time>
      </trkpt>
      <trkpt lat="44.55986" lon="2.88674">
        <ele>858.584</ele>
        <time>2015-08-05T17:50:17Z</time>
      </trkpt>
      <trkpt lat="44.56111" lon="2.88746">
        <ele>858.845</ele>
        <time>2015-08-05T17:50:37Z</time>
      </trkpt>
      <trkpt lat="44.5619" lon="2.88803">
        <ele>861.751</ele>
        <time>2015-08-05T17:50:57Z</time>
      </trkpt>
      <trkpt lat="44.5624" lon="2.88866">
        <ele>865.483</ele>
        <time>2015-08-05T17:51:17Z</time>
      </trkpt>
      <trkpt lat="44.56314" lon="2.88996">
        <ele>876.029</ele>
        <time>2015-08-05T17:51:37Z</time>
      </trkpt>
      <trkpt lat="44.5638" lon="2.8916">
        <ele>879.4</ele>
        <time>2015-08-05T17:51:57Z</time>
      </trkpt>
      <trkpt lat="44.56411" lon="2.89283">
        <ele>884.42</ele>
        <time>2015-08-05T17:52:17Z</time>
      </trkpt>
      <trkpt lat="44.56442" lon="2.89387">
        <ele>887.908</ele>
        <time>2015-08-05T17:52:37Z</time>
      </trkpt>
      <trkpt lat="44.56521" lon="2.89514">
        <ele>891.278</ele>
        <time>2015-08-05T17:52:57Z</time>
      </trkpt>
      <trkpt lat="44.56658" lon="2.89688">
        <ele>902.813</ele>
        <time>2015-08-05T17:53:17Z</time>
      </trkpt>
      <trkpt lat="44.56687" lon="2.89755">
        <ele>906.553</ele>
        <time>2015-08-05T17:53:37Z</time>
      </trkpt>
      <trkpt lat="44.56742" lon="2.89833">
        <ele>901.375</ele>
        <time>2015-08-05T17:53:57Z</time>
      </trkpt>
      <trkpt lat="44.56796" lon="2.8994">
        <ele>903.097</ele>
        <time>2015-08-05T17:54:17Z</time>
      </trkpt>
      <trkpt lat="44.56849" lon="2.89989">
        <ele>904.068</ele>
        <time>2015-08-05T17:54:37Z</time>
      </trkpt>
      <trkpt lat="44.56886" lon="2.90043">
        <ele>906.484</ele>
        <time>2015-08-05T17:54:57Z</time>
      </trkpt>
      <trkpt lat="44.56923" lon="2.90064">
        <ele>904.846</ele>
        <time>2015-08-05T17:55:17Z</time>
      </trkpt>
      <trkpt lat="44.56986" lon="2.90055">
        <ele>900.018</ele>
        <time>2015-08-05T17:55:37Z</time>
      </trkpt>
      <trkpt lat="44.57026" lon="2.90179">
        <ele>903.198</ele>
        <time>2015-08-05T17:55:57Z</time>
      </trkpt>
      <trkpt lat="44.57024" lon="2.90208">
        <ele>905.517</ele>
        <time>2015-08-05T17:56:17Z</time>
      </trkpt>
      <trkpt lat="44.57064" lon="2.90261">
        <ele>902.708</ele>
        <time>2015-08-05T17:56:37Z</time>
      </trkpt>
      <trkpt lat="44.571" lon="2.90334">
        <ele>904.737</ele>
        <time>2015-08-05T17:56:57Z</time>
      </trkpt>
      <trkpt lat="44.57114" lon="2.90388">
        <ele>909.652</ele>
        <time>2015-08-05T17:57:17Z</time>
      </trkpt>
      <trkpt lat="44.57149" lon="2.90463">
        <ele>911.032</ele>
        <time>2015-08-05T17:57:37Z</time>
      </trkpt>
      <trkpt lat="44.57183" lon="2.90483">
        <ele>911.834</ele>
        <time>2015-08-05T17:57:57Z</time>
      </trkpt>
      <trkpt lat="44.57191" lon="2.90467">
        <ele>909.536</ele>
        <time>2015-08-05T17:58:17Z</time>
      </trkpt>
      <trkpt lat="44.57216" lon="2.90464">
        <ele>910.697</ele>
        <time>2015-08-05T17:58:37Z</time>
      </trkpt>
      <trkpt lat="44.57268" lon="2.90374">
        <ele>912.733</ele>
        <time>2015-08-05T17:58:57Z</time>
      </trkpt>
      <trkpt lat="44.57291" lon="2.90437">
        <ele>916.775</ele>
        <time>2015-08-05T17:59:17Z</time>
      </trkpt>
      <trkpt lat="44.57332" lon="2.90461">
        <ele>919.222</ele>
        <time>2015-08-05T17:59:37Z</time>
      </trkpt>
      <trkpt lat="44.57413" lon="2.90533">
        <ele>921.862</ele>
        <time>2015-08-05T17:59:57Z</time>
      </trkpt>
      <trkpt lat="44.57474" lon="2.90555">
        <ele>921.708</ele>
        <time>2015-08-05T18:00:17Z</time>
      </trkpt>
      <trkpt lat="44.57526" lon="2.90605">
        <ele>923.608</ele>
        <time>2015-08-05T18:00:37Z</time>
      </trkpt>
      <trkpt lat="44.57542" lon="2.9065">
        <ele>923.258</ele>
        <time>2015-08-05T18:00:57Z</time>
      </trkpt>
      <trkpt lat="44.57565" lon="2.90631">
        <ele>920.163</ele>
        <time>2015-08-05T18:01:17Z</time>
      </trkpt>
      <trkpt lat="44.57589" lon="2.90629">
        <ele>916.533</ele>
        <time>2015-08-05T18:01:37Z</time>
      </trkpt>
      <trkpt lat="44.57615" lon="2.90778">
        <ele>904.675</ele>
        <time>2015-08-05T18:01:57Z</time>
      </trkpt>
      <trkpt lat="44.57607" lon="2.90816">
        <ele>903.137</ele>
        <time>2015-08-05T18:02:17Z</time>
      </trkpt>
      <trkpt lat="44.57605" lon="2.90939">
        <ele>892.548</ele>
        <time>2015-08-05T18:02:37Z</time>
      </trkpt>
      <trkpt lat="44.57599" lon="2.90997">
        <ele>887.944</ele>
        <time>2015-08-05T18:02:57Z</time>
      </trkpt>
      <trkpt lat="44.57581" lon="2.91037">
        <ele>896.996</ele>
        <time>2015-08-05T18:03:17Z</time>
      </trkpt>
      <trkpt lat="44.57583" lon="2.91059">
        <ele>902.075</ele>
        <time>2015-08-05T18:03:37Z</time>
      </trkpt>
      <trkpt lat="44.57629" lon="2.91092">
        <ele>895.528</ele>
        <time>2015-08-05T18:03:57Z</time>
      </trkpt>
      <trkpt lat="44.57647" lon="2.91117">
        <ele>895.52</ele>
        <time>2015-08-05T18:04:17Z</time>
      </trkpt>
      <trkpt lat="44.57672" lon="2.91137">
        <ele>891.408</ele>
        <time>2015-08-05T18:04:37Z</time>
      </trkpt>
      <trkpt lat="44.57713" lon="2.9118">
        <ele>886.873</ele>
        <time>2015-08-05T18:04:57Z</time>
      </trkpt>
      <trkpt lat="44.57747" lon="2.91235">
        <ele>888.048</ele>
        <time>2015-08-05T18:05:17Z</time>
      </trkpt>
      <trkpt lat="44.57765" lon="2.91283">
        <ele>890.538</ele>
        <time>2015-08-05T18:05:37Z</time>
      </trkpt>
      <trkpt lat="44.5781" lon="2.91319">
        <ele>878.31</ele>
        <time>2015-08-05T18:05:57Z</time>
      </trkpt>
      <trkpt lat="44.57818" lon="2.91373">
        <ele>883.042</ele>
        <time>2015-08-05T18:06:17Z</time>
      </trkpt>
      <trkpt lat="44.5784" lon="2.91428">
        <ele>873.993</ele>
        <time>2015-08-05T18:06:37Z</time>
      </trkpt>
      <trkpt lat="44.57831" lon="2.91544">
        <ele>877.589</ele>
        <time>2015-08-05T18:06:57Z</time>
      </trkpt>
      <trkpt lat="44.57829" lon="2.91621">
        <ele>873.391</ele>
        <time>2015-08-05T18:07:17Z</time>
      </trkpt>
      <trkpt lat="44.57814" lon="2.91756">
        <ele>871.091</ele>
        <time>2015-08-05T18:07:37Z</time>
      </trkpt>
      <trkpt lat="44.5779" lon="2.91828">
        <ele>878.281</ele>
        <time>2015-08-05T18:07:57Z</time>
      </trkpt>
      <trkpt lat="44.5779" lon="2.91863">
        <ele>878.119</ele>
        <time>2015-08-05T18:08:17Z</time>
      </trkpt>
      <trkpt lat="44.57808" lon="2.91875">
        <ele>875.008</ele>
        <time>2015-08-05T18:08:37Z</time>
      </trkpt>
      <trkpt lat="44.5787" lon="2.91863">
        <ele>877.065</ele>
        <time>2015-08-05T18:08:57Z</time>
      </trkpt>
      <trkpt lat="44.57898" lon="2.91831">
        <ele>873.23</ele>
        <time>2015-08-05T18:09:17Z</time>
      </trkpt>
      <trkpt lat="44.57958" lon="2.91817">
        <ele>877.41</ele>
        <time>2015-08-05T18:09:37Z</time>
      </trkpt>
      <trkpt lat="44.58017" lon="2.91794">
        <ele>878.592</ele>
        <time>2015-08-05T18:09:57Z</time>
      </trkpt>
      <trkpt lat="44.58104" lon="2.91777">
        <ele>876.624</ele>
        <time>2015-08-05T18:10:17Z</time>
      </trkpt>
      <trkpt lat="44.5818" lon="2.91819">
        <ele>884.415</ele>
        <time>2015-08-05T18:10:37Z</time>
      </trkpt>
      <trkpt lat="44.58308" lon="2.91866">
        <ele>873.731</ele>
        <time>2015-08-05T18:10:57Z</time>
      </trkpt>
      <trkpt lat="44.58381" lon="2.91927">
        <ele>878.223</ele>
        <time>2015-08-05T18:11:17Z</time>
      </trkpt>
      <trkpt lat="44.58573" lon="2.91973">
        <ele>857.484</ele>
        <time>2015-08-05T18:11:37Z</time>
      </trkpt>
      <trkpt lat="44.58625" lon="2.92047">
        <ele>855.007</ele>
        <time>2015-08-05T18:11:57Z</time>
      </trkpt>
      <trkpt lat="44.58669" lon="2.92085">
        <ele>850.017</ele>
        <time>2015-08-05T18:12:17Z</time>
      </trkpt>
      <trkpt lat="44.58648" lon="2.9203">
        <ele>842.108</ele>
        <time>2015-08-05T18:12:37Z</time>
      </trkpt>
      <trkpt lat="44.58656" lon="2.92027">
        <ele>838.794</ele>
        <time>2015-08-05T18:12:57Z</time>
      </trkpt>
      <trkpt lat="44.58687" lon="2.92069">
        <ele>840.829</ele>
        <time>2015-08-05T18:13:17Z</time>
      </trkpt>
      <trkpt lat="44.58727" lon="2.9209">
        <ele>834.349</ele>
        <time>2015-08-05T18:13:37Z</time>
      </trkpt>
      <trkpt lat="44.58738" lon="2.92106">
        <ele>833.491</ele>
        <time>2015-08-05T18:13:57Z</time>
      </trkpt>
      <trkpt lat="44.58747" lon="2.92133">
        <ele>837.273</ele>
        <time>2015-08-05T18:14:17Z</time>
      </trkpt>
      <trkpt lat="44.58815" lon="2.92191">
        <ele>818.424</ele>
        <time>2015-08-05T18:14:37Z</time>
      </trkpt>
      <trkpt lat="44.58847" lon="2.92207">
        <ele>811.98</ele>
        <time>2015-08-05T18:14:57Z</time>
      </trkpt>
      <trkpt lat="44.58872" lon="2.92226">
        <ele>806.182</ele>
        <time>2015-08-05T18:15:17Z</time>
      </trkpt>
      <trkpt lat="44.58862" lon="2.92197">
        <ele>809.3</ele>
      </trkpt>
      <trkpt lat="44.58883" lon="2.92217">
        <ele>807.3</ele>
      </trkpt>
      <trkpt lat="44.58892" lon="2.92219">
        <ele>805.1</ele>
      </trkpt>
      <trkpt lat="44.58892" lon="2.92207">
        <ele>803.7</ele>
      </trkpt>
      <trkpt lat="44.58885" lon="2.92164">
        <ele>800.3</ele>
      </trkpt>
      <trkpt lat="44.58906" lon="2.92137">
        <ele>796.3</ele>
      </trkpt>
      <trkpt lat="44.58949" lon="2.92152">
        <ele>799.2</ele>
      </trkpt>
      <trkpt lat="44.58971" lon="2.92129">
        <ele>802.6</ele>
      </trkpt>
      <trkpt lat="44.58982" lon="2.92137">
        <ele>804</ele>
      </trkpt>
      <trkpt lat="44.59016" lon="2.92116">
        <ele>811</ele>
      </trkpt>
      <trkpt lat="44.59038" lon="2.92112">
        <ele>816.1</ele>
      </trkpt>
      <trkpt lat="44.59041" lon="2.92139">
        <ele>814.8</ele>
      </trkpt>
    </trkseg>
  </trk>
</gpx>